sensor_id;sensor_type;location;lat;lon;timestamp;temperature;humidity
11152;DHT22;5630;49.342;10.802;2023-04-03T00:00:52;3.90;99.90
11152;DHT22;5630;49.342;10.802;2023-04-03T00:03:18;3.80;99.90
11152;DHT22;5630;49.342;10.802;2023-04-03T00:05:45;3.80;99.90
11152;DHT22;5630;49.342;10.802;2023-04-03T00:08:11;3.80;99.90
11152;DHT22;5630;49.342;10.802;2023-04-03T00:10:37;3.80;99.90
11152;DHT22;5630;49.342;10.802;2023-04-03T00:13:04;3.80;99.90
11152;DHT22;5630;49.342;10.802;2023-04-03T00:15:30;3.80;99.90
11152;DHT22;5630;49.342;10.802;2023-04-03T00:17:55;3.80;99.90
11152;DHT22;5630;49.342;10.802;2023-04-03T00:20:21;3.90;99.90
11152;DHT22;5630;49.342;10.802;2023-04-03T00:22:46;3.80;99.90
11152;DHT22;5630;49.342;10.802;2023-04-03T00:25:12;3.70;99.90
11152;DHT22;5630;49.342;10.802;2023-04-03T00:27:38;3.70;99.90
11152;DHT22;5630;49.342;10.802;2023-04-03T00:30:05;3.70;99.90
11152;DHT22;5630;49.342;10.802;2023-04-03T00:32:32;3.60;99.90
11152;DHT22;5630;49.342;10.802;2023-04-03T00:34:57;3.60;99.90
11152;DHT22;5630;49.342;10.802;2023-04-03T00:37:23;3.60;99.90
11152;DHT22;5630;49.342;10.802;2023-04-03T00:39:49;3.60;99.90
11152;DHT22;5630;49.342;10.802;2023-04-03T00:42:14;3.60;99.90
11152;DHT22;5630;49.342;10.802;2023-04-03T00:47:08;3.50;99.90
11152;DHT22;5630;49.342;10.802;2023-04-03T00:49:34;3.50;99.90
11152;DHT22;5630;49.342;10.802;2023-04-03T00:52:01;3.50;99.90
11152;DHT22;5630;49.342;10.802;2023-04-03T00:54:27;3.60;99.90
11152;DHT22;5630;49.342;10.802;2023-04-03T00:56:55;3.60;99.90
11152;DHT22;5630;49.342;10.802;2023-04-03T00:59:25;3.60;99.90
11152;DHT22;5630;49.342;10.802;2023-04-03T01:01:55;3.60;99.90
11152;DHT22;5630;49.342;10.802;2023-04-03T01:04:36;3.60;99.90
11152;DHT22;5630;49.342;10.802;2023-04-03T01:07:29;3.60;99.90
11152;DHT22;5630;49.342;10.802;2023-04-03T01:09:57;3.60;99.90
11152;DHT22;5630;49.342;10.802;2023-04-03T01:12:27;3.60;99.90
11152;DHT22;5630;49.342;10.802;2023-04-03T01:17:40;3.60;99.90
11152;DHT22;5630;49.342;10.802;2023-04-03T01:25:28;3.50;99.90
11152;DHT22;5630;49.342;10.802;2023-04-03T01:27:54;3.60;99.90
11152;DHT22;5630;49.342;10.802;2023-04-03T01:30:21;3.60;99.90
11152;DHT22;5630;49.342;10.802;2023-04-03T01:32:49;3.60;99.90
11152;DHT22;5630;49.342;10.802;2023-04-03T01:35:14;3.60;99.90
11152;DHT22;5630;49.342;10.802;2023-04-03T01:37:40;3.60;99.90
11152;DHT22;5630;49.342;10.802;2023-04-03T01:40:06;3.60;99.90
11152;DHT22;5630;49.342;10.802;2023-04-03T01:42:32;3.60;99.90
11152;DHT22;5630;49.342;10.802;2023-04-03T01:44:57;3.60;99.90
11152;DHT22;5630;49.342;10.802;2023-04-03T01:47:23;3.50;99.90
11152;DHT22;5630;49.342;10.802;2023-04-03T01:49:49;3.40;99.90
11152;DHT22;5630;49.342;10.802;2023-04-03T01:52:14;3.50;99.90
11152;DHT22;5630;49.342;10.802;2023-04-03T01:54:40;3.50;99.90
11152;DHT22;5630;49.342;10.802;2023-04-03T01:57:05;3.40;99.90
11152;DHT22;5630;49.342;10.802;2023-04-03T01:59:31;3.40;99.90
11152;DHT22;5630;49.342;10.802;2023-04-03T02:01:56;3.40;99.90
11152;DHT22;5630;49.342;10.802;2023-04-03T02:04:22;3.40;99.90
11152;DHT22;5630;49.342;10.802;2023-04-03T02:06:48;3.30;99.90
11152;DHT22;5630;49.342;10.802;2023-04-03T02:09:13;3.20;99.90
11152;DHT22;5630;49.342;10.802;2023-04-03T02:11:39;3.10;99.90
11152;DHT22;5630;49.342;10.802;2023-04-03T02:14:05;3.10;99.90
11152;DHT22;5630;49.342;10.802;2023-04-03T02:16:30;3.00;99.90
11152;DHT22;5630;49.342;10.802;2023-04-03T02:18:56;3.10;99.90
11152;DHT22;5630;49.342;10.802;2023-04-03T02:21:22;3.00;99.90
11152;DHT22;5630;49.342;10.802;2023-04-03T02:23:48;3.00;99.90
11152;DHT22;5630;49.342;10.802;2023-04-03T02:26:15;3.00;99.90
11152;DHT22;5630;49.342;10.802;2023-04-03T02:28:42;3.00;99.90
11152;DHT22;5630;49.342;10.802;2023-04-03T02:31:08;2.90;99.90
11152;DHT22;5630;49.342;10.802;2023-04-03T02:33:34;2.80;99.90
11152;DHT22;5630;49.342;10.802;2023-04-03T02:36:06;2.90;99.90
11152;DHT22;5630;49.342;10.802;2023-04-03T02:38:31;2.90;99.90
11152;DHT22;5630;49.342;10.802;2023-04-03T02:41:05;2.90;99.90
11152;DHT22;5630;49.342;10.802;2023-04-03T02:43:32;2.90;99.90
11152;DHT22;5630;49.342;10.802;2023-04-03T02:45:57;2.80;99.90
11152;DHT22;5630;49.342;10.802;2023-04-03T02:48:23;2.80;99.90
11152;DHT22;5630;49.342;10.802;2023-04-03T02:50:50;2.80;99.90
11152;DHT22;5630;49.342;10.802;2023-04-03T02:53:15;2.70;99.90
11152;DHT22;5630;49.342;10.802;2023-04-03T02:55:41;2.80;99.90
11152;DHT22;5630;49.342;10.802;2023-04-03T02:58:07;2.80;99.90
11152;DHT22;5630;49.342;10.802;2023-04-03T03:00:33;2.70;99.90
11152;DHT22;5630;49.342;10.802;2023-04-03T03:02:59;2.60;99.90
11152;DHT22;5630;49.342;10.802;2023-04-03T03:05:25;2.60;99.90
11152;DHT22;5630;49.342;10.802;2023-04-03T03:07:51;2.70;99.90
11152;DHT22;5630;49.342;10.802;2023-04-03T03:10:17;2.80;99.90
11152;DHT22;5630;49.342;10.802;2023-04-03T03:12:42;2.80;99.90
11152;DHT22;5630;49.342;10.802;2023-04-03T03:15:08;2.80;99.90
11152;DHT22;5630;49.342;10.802;2023-04-03T03:17:34;2.70;99.90
11152;DHT22;5630;49.342;10.802;2023-04-03T03:20:01;2.70;99.90
11152;DHT22;5630;49.342;10.802;2023-04-03T03:22:28;2.80;99.90
11152;DHT22;5630;49.342;10.802;2023-04-03T03:24:53;2.70;99.90
11152;DHT22;5630;49.342;10.802;2023-04-03T03:27:20;2.70;99.90
11152;DHT22;5630;49.342;10.802;2023-04-03T03:29:46;2.70;99.90
11152;DHT22;5630;49.342;10.802;2023-04-03T03:32:11;2.70;99.90
11152;DHT22;5630;49.342;10.802;2023-04-03T03:34:37;2.70;99.90
11152;DHT22;5630;49.342;10.802;2023-04-03T03:37:02;2.70;99.90
11152;DHT22;5630;49.342;10.802;2023-04-03T03:39:28;2.60;99.90
11152;DHT22;5630;49.342;10.802;2023-04-03T03:41:53;2.50;99.90
11152;DHT22;5630;49.342;10.802;2023-04-03T03:44:20;2.40;99.90
11152;DHT22;5630;49.342;10.802;2023-04-03T03:46:46;2.30;99.90
11152;DHT22;5630;49.342;10.802;2023-04-03T03:49:11;2.30;99.90
11152;DHT22;5630;49.342;10.802;2023-04-03T03:51:38;2.40;99.90
11152;DHT22;5630;49.342;10.802;2023-04-03T03:54:04;2.40;99.90
11152;DHT22;5630;49.342;10.802;2023-04-03T03:56:30;2.40;99.90
11152;DHT22;5630;49.342;10.802;2023-04-03T03:58:56;2.50;99.90
11152;DHT22;5630;49.342;10.802;2023-04-03T04:01:23;2.50;99.90
11152;DHT22;5630;49.342;10.802;2023-04-03T04:03:48;2.50;99.90
11152;DHT22;5630;49.342;10.802;2023-04-03T04:06:14;2.60;99.90
11152;DHT22;5630;49.342;10.802;2023-04-03T04:08:40;2.50;99.90
11152;DHT22;5630;49.342;10.802;2023-04-03T04:11:06;2.50;99.90
11152;DHT22;5630;49.342;10.802;2023-04-03T04:13:31;2.40;99.90
11152;DHT22;5630;49.342;10.802;2023-04-03T04:15:57;2.50;99.90
11152;DHT22;5630;49.342;10.802;2023-04-03T04:18:22;2.50;99.90
11152;DHT22;5630;49.342;10.802;2023-04-03T04:20:49;2.50;99.90
11152;DHT22;5630;49.342;10.802;2023-04-03T04:23:16;2.60;99.90
11152;DHT22;5630;49.342;10.802;2023-04-03T04:25:45;2.50;99.90
11152;DHT22;5630;49.342;10.802;2023-04-03T04:28:11;2.50;99.90
11152;DHT22;5630;49.342;10.802;2023-04-03T04:30:37;2.50;99.90
11152;DHT22;5630;49.342;10.802;2023-04-03T04:33:02;2.50;99.90
11152;DHT22;5630;49.342;10.802;2023-04-03T04:35:28;2.40;99.90
11152;DHT22;5630;49.342;10.802;2023-04-03T04:37:54;2.50;99.90
11152;DHT22;5630;49.342;10.802;2023-04-03T04:40:20;2.40;99.90
11152;DHT22;5630;49.342;10.802;2023-04-03T04:42:46;2.50;99.90
11152;DHT22;5630;49.342;10.802;2023-04-03T04:45:12;2.40;99.90
11152;DHT22;5630;49.342;10.802;2023-04-03T04:47:37;2.40;99.90
11152;DHT22;5630;49.342;10.802;2023-04-03T04:50:03;2.40;99.90
11152;DHT22;5630;49.342;10.802;2023-04-03T04:52:29;2.40;99.90
11152;DHT22;5630;49.342;10.802;2023-04-03T04:54:54;2.40;99.90
11152;DHT22;5630;49.342;10.802;2023-04-03T04:57:20;2.40;99.90
11152;DHT22;5630;49.342;10.802;2023-04-03T04:59:46;2.50;99.90
11152;DHT22;5630;49.342;10.802;2023-04-03T05:02:11;2.40;99.90
11152;DHT22;5630;49.342;10.802;2023-04-03T05:04:37;2.50;99.90
11152;DHT22;5630;49.342;10.802;2023-04-03T05:07:03;2.40;99.90
11152;DHT22;5630;49.342;10.802;2023-04-03T05:09:28;2.50;99.90
11152;DHT22;5630;49.342;10.802;2023-04-03T05:11:54;2.40;99.90
11152;DHT22;5630;49.342;10.802;2023-04-03T05:14:20;2.50;99.90
11152;DHT22;5630;49.342;10.802;2023-04-03T05:16:45;2.50;99.90
11152;DHT22;5630;49.342;10.802;2023-04-03T05:19:11;2.60;99.90
11152;DHT22;5630;49.342;10.802;2023-04-03T05:21:36;2.60;99.90
11152;DHT22;5630;49.342;10.802;2023-04-03T05:24:02;2.70;99.90
11152;DHT22;5630;49.342;10.802;2023-04-03T05:26:29;2.60;99.90
11152;DHT22;5630;49.342;10.802;2023-04-03T05:28:55;2.70;99.90
11152;DHT22;5630;49.342;10.802;2023-04-03T05:31:21;2.60;99.90
11152;DHT22;5630;49.342;10.802;2023-04-03T05:33:47;2.60;99.90
11152;DHT22;5630;49.342;10.802;2023-04-03T05:36:13;2.70;99.90
11152;DHT22;5630;49.342;10.802;2023-04-03T05:38:39;2.70;99.90
11152;DHT22;5630;49.342;10.802;2023-04-03T05:41:04;2.70;99.90
11152;DHT22;5630;49.342;10.802;2023-04-03T05:43:31;2.70;99.90
11152;DHT22;5630;49.342;10.802;2023-04-03T05:45:58;2.80;99.90
11152;DHT22;5630;49.342;10.802;2023-04-03T05:48:23;2.80;99.90
11152;DHT22;5630;49.342;10.802;2023-04-03T05:50:49;2.80;99.90
11152;DHT22;5630;49.342;10.802;2023-04-03T05:53:19;2.80;99.90
11152;DHT22;5630;49.342;10.802;2023-04-03T05:55:46;2.80;99.90
11152;DHT22;5630;49.342;10.802;2023-04-03T05:58:11;2.80;99.90
11152;DHT22;5630;49.342;10.802;2023-04-03T06:00:37;2.80;99.90
11152;DHT22;5630;49.342;10.802;2023-04-03T06:03:02;2.80;99.90
11152;DHT22;5630;49.342;10.802;2023-04-03T06:05:28;2.80;99.90
11152;DHT22;5630;49.342;10.802;2023-04-03T06:07:54;2.80;99.90
11152;DHT22;5630;49.342;10.802;2023-04-03T06:10:19;2.90;99.90
11152;DHT22;5630;49.342;10.802;2023-04-03T06:12:45;2.90;99.90
11152;DHT22;5630;49.342;10.802;2023-04-03T06:15:11;3.00;99.90
11152;DHT22;5630;49.342;10.802;2023-04-03T06:17:37;3.10;99.90
11152;DHT22;5630;49.342;10.802;2023-04-03T06:20:03;3.10;99.90
11152;DHT22;5630;49.342;10.802;2023-04-03T06:22:29;3.10;99.90
11152;DHT22;5630;49.342;10.802;2023-04-03T06:24:55;3.10;99.90
11152;DHT22;5630;49.342;10.802;2023-04-03T06:27:21;3.20;99.90
11152;DHT22;5630;49.342;10.802;2023-04-03T06:29:47;3.20;99.90
11152;DHT22;5630;49.342;10.802;2023-04-03T06:34:40;3.20;99.90
11152;DHT22;5630;49.342;10.802;2023-04-03T06:37:05;3.30;99.90
11152;DHT22;5630;49.342;10.802;2023-04-03T06:39:31;3.30;99.90
11152;DHT22;5630;49.342;10.802;2023-04-03T06:41:57;3.30;99.90
11152;DHT22;5630;49.342;10.802;2023-04-03T06:44:23;3.30;99.90
11152;DHT22;5630;49.342;10.802;2023-04-03T06:46:48;3.30;99.90
11152;DHT22;5630;49.342;10.802;2023-04-03T06:49:14;3.30;99.90
11152;DHT22;5630;49.342;10.802;2023-04-03T06:51:40;3.30;99.90
11152;DHT22;5630;49.342;10.802;2023-04-03T06:54:06;3.40;99.90
11152;DHT22;5630;49.342;10.802;2023-04-03T06:56:34;3.40;99.90
11152;DHT22;5630;49.342;10.802;2023-04-03T06:58:59;3.50;99.90
11152;DHT22;5630;49.342;10.802;2023-04-03T07:01:27;3.50;99.90
11152;DHT22;5630;49.342;10.802;2023-04-03T07:03:53;3.40;99.90
11152;DHT22;5630;49.342;10.802;2023-04-03T07:06:19;3.50;99.90
11152;DHT22;5630;49.342;10.802;2023-04-03T07:08:45;3.60;99.90
11152;DHT22;5630;49.342;10.802;2023-04-03T07:11:12;3.60;99.90
11152;DHT22;5630;49.342;10.802;2023-04-03T07:13:38;3.70;99.90
11152;DHT22;5630;49.342;10.802;2023-04-03T07:16:04;3.70;99.90
11152;DHT22;5630;49.342;10.802;2023-04-03T07:18:31;3.80;99.90
11152;DHT22;5630;49.342;10.802;2023-04-03T07:20:57;3.80;99.90
11152;DHT22;5630;49.342;10.802;2023-04-03T07:23:23;3.70;99.90
11152;DHT22;5630;49.342;10.802;2023-04-03T07:25:51;3.80;99.90
11152;DHT22;5630;49.342;10.802;2023-04-03T07:28:17;3.80;99.90
11152;DHT22;5630;49.342;10.802;2023-04-03T07:30:44;3.90;99.90
11152;DHT22;5630;49.342;10.802;2023-04-03T07:33:11;4.00;99.90
11152;DHT22;5630;49.342;10.802;2023-04-03T07:35:37;3.90;99.90
11152;DHT22;5630;49.342;10.802;2023-04-03T07:38:03;4.00;99.90
11152;DHT22;5630;49.342;10.802;2023-04-03T07:42:54;4.20;99.90
11152;DHT22;5630;49.342;10.802;2023-04-03T07:45:22;4.20;99.90
11152;DHT22;5630;49.342;10.802;2023-04-03T07:47:48;4.40;99.90
11152;DHT22;5630;49.342;10.802;2023-04-03T07:50:13;4.40;99.90
11152;DHT22;5630;49.342;10.802;2023-04-03T07:52:39;4.50;99.90
11152;DHT22;5630;49.342;10.802;2023-04-03T07:55:06;4.60;99.90
11152;DHT22;5630;49.342;10.802;2023-04-03T07:57:32;4.50;99.90
11152;DHT22;5630;49.342;10.802;2023-04-03T07:59:57;4.60;99.90
11152;DHT22;5630;49.342;10.802;2023-04-03T08:02:23;4.60;99.90
11152;DHT22;5630;49.342;10.802;2023-04-03T08:04:48;4.70;99.90
11152;DHT22;5630;49.342;10.802;2023-04-03T08:07:14;4.70;99.90
11152;DHT22;5630;49.342;10.802;2023-04-03T08:09:40;4.60;99.90
11152;DHT22;5630;49.342;10.802;2023-04-03T08:12:05;4.70;99.90
11152;DHT22;5630;49.342;10.802;2023-04-03T08:14:32;4.90;99.90
11152;DHT22;5630;49.342;10.802;2023-04-03T08:16:59;4.90;99.90
11152;DHT22;5630;49.342;10.802;2023-04-03T08:19:26;5.00;99.90
11152;DHT22;5630;49.342;10.802;2023-04-03T08:21:51;5.00;99.90
11152;DHT22;5630;49.342;10.802;2023-04-03T08:24:17;5.10;99.90
11152;DHT22;5630;49.342;10.802;2023-04-03T08:26:43;5.10;99.90
11152;DHT22;5630;49.342;10.802;2023-04-03T08:29:08;5.20;99.90
11152;DHT22;5630;49.342;10.802;2023-04-03T08:31:34;5.20;99.90
11152;DHT22;5630;49.342;10.802;2023-04-03T08:33:59;5.30;99.90
11152;DHT22;5630;49.342;10.802;2023-04-03T08:36:27;5.30;99.90
11152;DHT22;5630;49.342;10.802;2023-04-03T08:38:54;5.30;99.90
11152;DHT22;5630;49.342;10.802;2023-04-03T08:41:33;5.40;99.90
11152;DHT22;5630;49.342;10.802;2023-04-03T08:49:41;5.50;99.90
11152;DHT22;5630;49.342;10.802;2023-04-03T08:55:25;5.60;99.90
11152;DHT22;5630;49.342;10.802;2023-04-03T08:58:16;5.50;99.90
11152;DHT22;5630;49.342;10.802;2023-04-03T09:01:16;5.60;99.90
11152;DHT22;5630;49.342;10.802;2023-04-03T09:03:42;5.60;99.90
11152;DHT22;5630;49.342;10.802;2023-04-03T09:06:21;5.80;99.90
11152;DHT22;5630;49.342;10.802;2023-04-03T09:08:53;5.80;99.90
11152;DHT22;5630;49.342;10.802;2023-04-03T09:11:23;5.80;99.90
11152;DHT22;5630;49.342;10.802;2023-04-03T09:21:42;5.90;99.90
11152;DHT22;5630;49.342;10.802;2023-04-03T09:24:12;5.70;99.90
11152;DHT22;5630;49.342;10.802;2023-04-03T09:26:46;5.70;99.90
11152;DHT22;5630;49.342;10.802;2023-04-03T09:29:21;5.80;99.90
11152;DHT22;5630;49.342;10.802;2023-04-03T09:31:49;5.90;99.90
11152;DHT22;5630;49.342;10.802;2023-04-03T09:34:36;5.90;99.90
11152;DHT22;5630;49.342;10.802;2023-04-03T09:37:04;6.00;99.90
11152;DHT22;5630;49.342;10.802;2023-04-03T09:39:33;6.00;99.90
11152;DHT22;5630;49.342;10.802;2023-04-03T09:42:22;6.10;99.90
11152;DHT22;5630;49.342;10.802;2023-04-03T09:44:56;6.10;99.90
11152;DHT22;5630;49.342;10.802;2023-04-03T09:47:30;6.20;99.90
11152;DHT22;5630;49.342;10.802;2023-04-03T09:52:44;6.40;99.90
11152;DHT22;5630;49.342;10.802;2023-04-03T09:55:22;6.60;99.90
11152;DHT22;5630;49.342;10.802;2023-04-03T09:57:54;6.80;99.90
11152;DHT22;5630;49.342;10.802;2023-04-03T10:00:37;6.90;99.90
11152;DHT22;5630;49.342;10.802;2023-04-03T10:03:04;6.70;99.90
11152;DHT22;5630;49.342;10.802;2023-04-03T10:05:41;6.70;99.90
11152;DHT22;5630;49.342;10.802;2023-04-03T10:10:43;6.70;99.90
11152;DHT22;5630;49.342;10.802;2023-04-03T10:13:15;6.50;99.90
11152;DHT22;5630;49.342;10.802;2023-04-03T10:15:47;6.40;99.90
11152;DHT22;5630;49.342;10.802;2023-04-03T10:21:06;6.50;99.90
11152;DHT22;5630;49.342;10.802;2023-04-03T10:23:46;6.40;99.90
11152;DHT22;5630;49.342;10.802;2023-04-03T10:26:41;6.50;99.90
11152;DHT22;5630;49.342;10.802;2023-04-03T10:32:11;6.80;99.90
11152;DHT22;5630;49.342;10.802;2023-04-03T10:34:43;6.60;99.90
11152;DHT22;5630;49.342;10.802;2023-04-03T10:37:34;6.40;99.90
11152;DHT22;5630;49.342;10.802;2023-04-03T10:40:19;6.60;99.90
11152;DHT22;5630;49.342;10.802;2023-04-03T10:45:44;6.60;99.90
11152;DHT22;5630;49.342;10.802;2023-04-03T10:53:24;6.60;99.90
11152;DHT22;5630;49.342;10.802;2023-04-03T10:56:37;6.60;99.90
11152;DHT22;5630;49.342;10.802;2023-04-03T11:01:58;6.50;99.90
11152;DHT22;5630;49.342;10.802;2023-04-03T11:04:28;6.50;99.90
11152;DHT22;5630;49.342;10.802;2023-04-03T11:07:02;6.90;99.90
11152;DHT22;5630;49.342;10.802;2023-04-03T11:09:33;7.10;99.90
11152;DHT22;5630;49.342;10.802;2023-04-03T11:12:11;7.10;99.90
11152;DHT22;5630;49.342;10.802;2023-04-03T11:14:38;6.80;99.90
11152;DHT22;5630;49.342;10.802;2023-04-03T11:22:41;7.30;99.90
11152;DHT22;5630;49.342;10.802;2023-04-03T11:27:45;7.30;99.90
11152;DHT22;5630;49.342;10.802;2023-04-03T11:30:33;7.20;99.90
11152;DHT22;5630;49.342;10.802;2023-04-03T11:33:23;7.20;99.90
11152;DHT22;5630;49.342;10.802;2023-04-03T11:36:09;7.90;99.90
11152;DHT22;5630;49.342;10.802;2023-04-03T11:38:38;7.90;99.90
11152;DHT22;5630;49.342;10.802;2023-04-03T11:41:08;8.00;99.90
11152;DHT22;5630;49.342;10.802;2023-04-03T11:43:41;7.90;99.90
11152;DHT22;5630;49.342;10.802;2023-04-03T11:46:08;7.70;99.90
11152;DHT22;5630;49.342;10.802;2023-04-03T11:53:46;7.70;99.90
11152;DHT22;5630;49.342;10.802;2023-04-03T12:01:46;7.90;99.90
11152;DHT22;5630;49.342;10.802;2023-04-03T12:04:13;8.50;99.90
11152;DHT22;5630;49.342;10.802;2023-04-03T12:11:48;8.60;99.90
11152;DHT22;5630;49.342;10.802;2023-04-03T12:14:15;8.50;99.90
11152;DHT22;5630;49.342;10.802;2023-04-03T12:16:44;8.40;99.90
11152;DHT22;5630;49.342;10.802;2023-04-03T12:26:51;9.10;99.90
11152;DHT22;5630;49.342;10.802;2023-04-03T12:29:46;9.30;99.90
11152;DHT22;5630;49.342;10.802;2023-04-03T12:35:14;9.20;99.90
11152;DHT22;5630;49.342;10.802;2023-04-03T12:38:21;9.10;99.90
11152;DHT22;5630;49.342;10.802;2023-04-03T12:40:53;9.10;99.90
11152;DHT22;5630;49.342;10.802;2023-04-03T12:48:38;9.20;99.90
11152;DHT22;5630;49.342;10.802;2023-04-03T12:51:05;9.10;99.90
11152;DHT22;5630;49.342;10.802;2023-04-03T12:53:37;9.30;99.90
11152;DHT22;5630;49.342;10.802;2023-04-03T12:56:29;9.30;99.90
11152;DHT22;5630;49.342;10.802;2023-04-03T12:59:12;9.00;99.90
11152;DHT22;5630;49.342;10.802;2023-04-03T13:01:38;8.60;99.90
11152;DHT22;5630;49.342;10.802;2023-04-03T13:04:03;8.50;99.90
11152;DHT22;5630;49.342;10.802;2023-04-03T13:06:41;8.90;99.90
11152;DHT22;5630;49.342;10.802;2023-04-03T13:09:22;8.90;99.90
11152;DHT22;5630;49.342;10.802;2023-04-03T13:12:01;9.10;99.90
11152;DHT22;5630;49.342;10.802;2023-04-03T13:14:28;9.20;99.90
11152;DHT22;5630;49.342;10.802;2023-04-03T13:19:24;9.00;99.90
11152;DHT22;5630;49.342;10.802;2023-04-03T13:22:00;9.20;99.90
11152;DHT22;5630;49.342;10.802;2023-04-03T13:24:27;9.30;99.90
11152;DHT22;5630;49.342;10.802;2023-04-03T13:26:53;9.00;99.90
11152;DHT22;5630;49.342;10.802;2023-04-03T13:29:23;9.10;99.90
11152;DHT22;5630;49.342;10.802;2023-04-03T13:31:53;8.90;99.90
11152;DHT22;5630;49.342;10.802;2023-04-03T13:34:21;8.60;99.90
11152;DHT22;5630;49.342;10.802;2023-04-03T13:41:46;8.90;99.90
11152;DHT22;5630;49.342;10.802;2023-04-03T13:46:55;9.20;99.90
11152;DHT22;5630;49.342;10.802;2023-04-03T13:49:38;8.60;99.90
11152;DHT22;5630;49.342;10.802;2023-04-03T13:52:27;8.10;99.90
11152;DHT22;5630;49.342;10.802;2023-04-03T13:55:03;8.00;99.90
11152;DHT22;5630;49.342;10.802;2023-04-03T13:57:36;8.10;99.90
11152;DHT22;5630;49.342;10.802;2023-04-03T14:00:20;8.40;99.90
11152;DHT22;5630;49.342;10.802;2023-04-03T14:02:47;8.60;99.90
11152;DHT22;5630;49.342;10.802;2023-04-03T14:05:13;8.90;99.90
11152;DHT22;5630;49.342;10.802;2023-04-03T14:07:39;9.10;99.90
11152;DHT22;5630;49.342;10.802;2023-04-03T14:10:05;9.30;99.90
11152;DHT22;5630;49.342;10.802;2023-04-03T14:12:36;9.30;99.90
11152;DHT22;5630;49.342;10.802;2023-04-03T14:15:33;9.20;99.90
11152;DHT22;5630;49.342;10.802;2023-04-03T14:17:58;9.00;99.90
11152;DHT22;5630;49.342;10.802;2023-04-03T14:20:25;8.70;99.90
11152;DHT22;5630;49.342;10.802;2023-04-03T14:22:52;8.60;99.90
11152;DHT22;5630;49.342;10.802;2023-04-03T14:25:19;8.60;99.90
11152;DHT22;5630;49.342;10.802;2023-04-03T14:27:47;8.60;99.90
11152;DHT22;5630;49.342;10.802;2023-04-03T14:30:19;8.70;99.90
11152;DHT22;5630;49.342;10.802;2023-04-03T14:32:45;8.60;99.90
11152;DHT22;5630;49.342;10.802;2023-04-03T14:35:12;8.40;99.90
11152;DHT22;5630;49.342;10.802;2023-04-03T14:37:38;8.40;99.90
11152;DHT22;5630;49.342;10.802;2023-04-03T14:40:05;8.30;99.90
11152;DHT22;5630;49.342;10.802;2023-04-03T14:42:34;8.20;99.90
11152;DHT22;5630;49.342;10.802;2023-04-03T14:45:03;8.30;99.90
11152;DHT22;5630;49.342;10.802;2023-04-03T14:47:29;8.10;99.90
11152;DHT22;5630;49.342;10.802;2023-04-03T14:49:55;7.90;99.90
11152;DHT22;5630;49.342;10.802;2023-04-03T14:52:24;7.90;99.90
11152;DHT22;5630;49.342;10.802;2023-04-03T14:54:54;7.80;99.90
11152;DHT22;5630;49.342;10.802;2023-04-03T14:57:23;7.70;99.90
11152;DHT22;5630;49.342;10.802;2023-04-03T14:59:49;7.60;99.90
11152;DHT22;5630;49.342;10.802;2023-04-03T15:02:31;7.60;99.90
11152;DHT22;5630;49.342;10.802;2023-04-03T15:04:58;7.60;99.90
11152;DHT22;5630;49.342;10.802;2023-04-03T15:07:26;7.70;99.90
11152;DHT22;5630;49.342;10.802;2023-04-03T15:09:52;7.80;99.90
11152;DHT22;5630;49.342;10.802;2023-04-03T15:12:18;7.90;99.90
11152;DHT22;5630;49.342;10.802;2023-04-03T15:14:44;8.00;99.90
11152;DHT22;5630;49.342;10.802;2023-04-03T15:17:17;7.90;99.90
11152;DHT22;5630;49.342;10.802;2023-04-03T15:19:45;7.90;99.90
11152;DHT22;5630;49.342;10.802;2023-04-03T15:22:16;7.80;99.90
11152;DHT22;5630;49.342;10.802;2023-04-03T15:24:43;7.80;99.90
11152;DHT22;5630;49.342;10.802;2023-04-03T15:27:10;7.70;99.90
11152;DHT22;5630;49.342;10.802;2023-04-03T15:29:36;7.30;99.90
11152;DHT22;5630;49.342;10.802;2023-04-03T15:32:02;7.20;99.90
11152;DHT22;5630;49.342;10.802;2023-04-03T15:34:28;7.30;99.90
11152;DHT22;5630;49.342;10.802;2023-04-03T15:36:54;7.30;99.90
11152;DHT22;5630;49.342;10.802;2023-04-03T15:39:20;7.30;99.90
11152;DHT22;5630;49.342;10.802;2023-04-03T15:41:46;7.30;99.90
11152;DHT22;5630;49.342;10.802;2023-04-03T15:44:12;7.30;99.90
11152;DHT22;5630;49.342;10.802;2023-04-03T15:46:38;7.30;99.90
11152;DHT22;5630;49.342;10.802;2023-04-03T15:49:04;7.20;99.90
11152;DHT22;5630;49.342;10.802;2023-04-03T15:51:30;7.10;99.90
11152;DHT22;5630;49.342;10.802;2023-04-03T15:53:56;7.10;99.90
11152;DHT22;5630;49.342;10.802;2023-04-03T15:56:22;7.10;99.90
11152;DHT22;5630;49.342;10.802;2023-04-03T15:58:47;7.20;99.90
11152;DHT22;5630;49.342;10.802;2023-04-03T16:01:13;7.20;99.90
11152;DHT22;5630;49.342;10.802;2023-04-03T16:03:41;7.30;99.90
11152;DHT22;5630;49.342;10.802;2023-04-03T16:06:14;7.30;99.90
11152;DHT22;5630;49.342;10.802;2023-04-03T16:08:40;7.20;99.90
11152;DHT22;5630;49.342;10.802;2023-04-03T16:11:06;7.20;99.90
11152;DHT22;5630;49.342;10.802;2023-04-03T16:13:32;7.20;99.90
11152;DHT22;5630;49.342;10.802;2023-04-03T16:15:59;7.10;99.90
11152;DHT22;5630;49.342;10.802;2023-04-03T16:18:25;6.90;99.90
11152;DHT22;5630;49.342;10.802;2023-04-03T16:20:51;6.60;99.90
11152;DHT22;5630;49.342;10.802;2023-04-03T16:23:16;6.60;99.90
11152;DHT22;5630;49.342;10.802;2023-04-03T16:25:42;6.60;99.90
11152;DHT22;5630;49.342;10.802;2023-04-03T16:28:12;6.60;99.90
11152;DHT22;5630;49.342;10.802;2023-04-03T16:30:40;6.50;99.90
11152;DHT22;5630;49.342;10.802;2023-04-03T16:33:06;6.60;99.90
11152;DHT22;5630;49.342;10.802;2023-04-03T16:35:32;6.60;99.90
11152;DHT22;5630;49.342;10.802;2023-04-03T16:37:57;6.50;99.90
11152;DHT22;5630;49.342;10.802;2023-04-03T16:40:23;6.40;99.90
11152;DHT22;5630;49.342;10.802;2023-04-03T16:42:48;6.40;99.90
11152;DHT22;5630;49.342;10.802;2023-04-03T16:45:14;6.50;99.90
11152;DHT22;5630;49.342;10.802;2023-04-03T16:47:40;6.50;99.90
11152;DHT22;5630;49.342;10.802;2023-04-03T16:50:06;6.50;99.90
11152;DHT22;5630;49.342;10.802;2023-04-03T16:52:32;6.40;99.90
11152;DHT22;5630;49.342;10.802;2023-04-03T16:54:57;6.40;99.90
11152;DHT22;5630;49.342;10.802;2023-04-03T16:57:24;6.30;99.90
11152;DHT22;5630;49.342;10.802;2023-04-03T16:59:50;6.30;99.90
11152;DHT22;5630;49.342;10.802;2023-04-03T17:02:16;6.20;99.90
11152;DHT22;5630;49.342;10.802;2023-04-03T17:04:42;6.10;99.90
11152;DHT22;5630;49.342;10.802;2023-04-03T17:07:07;6.10;99.90
11152;DHT22;5630;49.342;10.802;2023-04-03T17:09:33;6.10;99.90
11152;DHT22;5630;49.342;10.802;2023-04-03T17:11:59;6.10;99.90
11152;DHT22;5630;49.342;10.802;2023-04-03T17:14:25;6.10;99.90
11152;DHT22;5630;49.342;10.802;2023-04-03T17:16:50;6.00;99.90
11152;DHT22;5630;49.342;10.802;2023-04-03T17:19:17;5.90;99.90
11152;DHT22;5630;49.342;10.802;2023-04-03T17:21:43;5.80;99.90
11152;DHT22;5630;49.342;10.802;2023-04-03T17:24:10;5.80;99.90
11152;DHT22;5630;49.342;10.802;2023-04-03T17:26:39;5.70;99.90
11152;DHT22;5630;49.342;10.802;2023-04-03T17:29:05;5.70;99.90
11152;DHT22;5630;49.342;10.802;2023-04-03T17:31:31;5.60;99.90
11152;DHT22;5630;49.342;10.802;2023-04-03T17:33:57;5.60;99.90
11152;DHT22;5630;49.342;10.802;2023-04-03T17:36:27;5.50;99.90